Time;durP1;ratioP1;P1;durP2;ratioP2;P2;SDS_P1;SDS_P2;PMS_P1;PMS_P2;Temp;Humidity;BMP_temperature;BMP_pressure;BME280_temperature;BME280_humidity;BME280_pressure;Samples;Min_cycle;Max_cycle;Signal;HPM_P1;HPM_P2
2022/07/26 00:00:37;;;;;;;;;0.80;0.80;35.90;99.90;;;;;;4861561;29;8889;-76
2022/07/26 00:03:07;;;;;;;;;0.60;0.60;35.90;99.90;;;;;;4846426;29;9189;-73
2022/07/26 00:05:40;;;;;;;;;1.20;1.20;35.80;99.90;;;;;;4849716;29;8888;-73
2022/07/26 00:08:15;;;;;;;;;1.60;1.00;35.80;99.90;;;;;;4847955;29;9524;-76
2022/07/26 00:10:49;;;;;;;;;1.00;1.00;35.60;99.90;;;;;;4834476;29;8833;-73
2022/07/26 00:13:21;;;;;;;;;1.00;1.00;35.60;99.90;;;;;;4845588;29;8885;-73
2022/07/26 00:15:55;;;;;;;;;0.80;0.80;35.70;99.90;;;;;;4860062;29;8888;-74
2022/07/26 00:18:33;;;;;;;;;0.80;0.60;35.60;99.90;;;;;;4843620;29;9049;-75
2022/07/26 00:21:02;;;;;;;;;1.80;1.80;35.50;99.90;;;;;;4851775;29;8841;-74
2022/07/26 00:23:34;;;;;;;;;1.80;1.80;35.40;99.90;;;;;;4849515;29;8900;-73
2022/07/26 00:26:09;;;;;;;;;0.80;0.80;35.40;99.90;;;;;;4865575;29;8885;-75
2022/07/26 00:28:43;;;;;;;;;1.00;1.00;35.50;99.90;;;;;;4849583;29;9594;-73
2022/07/26 00:31:15;;;;;;;;;1.00;1.00;35.40;99.90;;;;;;4832121;29;8865;-70
2022/07/26 00:33:45;;;;;;;;;0.80;0.80;35.40;99.90;;;;;;4850316;29;8944;-73
2022/07/26 00:36:15;;;;;;;;;0.20;0.20;35.30;99.90;;;;;;4845482;29;8924;-73
2022/07/26 00:38:48;;;;;;;;;0.60;0.60;35.10;99.90;;;;;;4828586;29;8858;-73
2022/07/26 00:41:18;;;;;;;;;1.00;1.00;35.10;99.90;;;;;;4843313;29;8872;-73
2022/07/26 00:43:55;;;;;;;;;1.40;1.40;35.00;99.90;;;;;;4846444;29;8846;-73
2022/07/26 00:46:27;;;;;;;;;1.00;1.00;35.00;99.90;;;;;;4859351;29;8901;-73
2022/07/26 00:48:57;;;;;;;;;0.80;0.80;34.90;99.90;;;;;;4828772;29;9608;-73
2022/07/26 00:51:29;;;;;;;;;0.00;0.00;34.80;99.90;;;;;;4846778;29;8865;-72
2022/07/26 00:53:59;;;;;;;;;0.20;0.20;34.80;99.90;;;;;;4846489;29;8915;-73
2022/07/26 00:56:39;;;;;;;;;0.80;0.80;34.80;99.90;;;;;;4845007;29;8891;-72
2022/07/26 00:59:09;;;;;;;;;1.20;1.20;34.80;99.90;;;;;;4863903;29;9583;-73
2022/07/26 01:01:42;;;;;;;;;0.60;0.60;34.70;99.90;;;;;;4826054;29;8963;-71
2022/07/26 01:04:13;;;;;;;;;1.00;1.00;34.60;99.90;;;;;;4846098;29;8919;-71
2022/07/26 01:06:47;;;;;;;;;1.00;1.00;34.60;99.90;;;;;;4848343;29;8850;-72
2022/07/26 01:09:22;;;;;;;;;1.00;1.00;34.50;99.90;;;;;;4847212;29;8896;-71
2022/07/26 01:11:51;;;;;;;;;1.00;1.00;34.50;99.90;;;;;;4831199;29;8861;-71
2022/07/26 01:14:23;;;;;;;;;1.00;1.00;34.40;99.90;;;;;;4843728;29;8888;-72
2022/07/26 01:16:56;;;;;;;;;1.00;1.00;34.30;99.90;;;;;;4841154;29;8874;-72
2022/07/26 01:19:27;;;;;;;;;1.00;0.00;34.20;99.90;;;;;;4848773;29;8878;-72
2022/07/26 01:21:58;;;;;;;;;0.80;0.80;34.20;99.90;;;;;;4849206;29;8897;-73
2022/07/26 01:24:28;;;;;;;;;0.00;0.00;34.20;99.90;;;;;;4835142;29;8901;-73
2022/07/26 01:27:03;;;;;;;;;1.00;1.00;34.10;99.90;;;;;;4834245;29;8858;-74
2022/07/26 01:29:37;;;;;;;;;0.20;0.20;34.10;99.90;;;;;;4851822;29;8841;-73
2022/07/26 01:32:08;;;;;;;;;0.00;0.00;34.10;99.90;;;;;;4848019;29;8916;-73
2022/07/26 01:34:39;;;;;;;;;0.80;0.80;34.00;99.90;;;;;;4846254;29;8917;-73
2022/07/26 01:37:09;;;;;;;;;1.00;0.00;33.90;99.90;;;;;;4850219;29;8869;-74
2022/07/26 01:39:40;;;;;;;;;0.00;0.00;33.80;99.90;;;;;;4849565;29;9517;-70
2022/07/26 01:42:11;;;;;;;;;0.00;0.00;33.80;99.90;;;;;;4852109;29;9517;-74
2022/07/26 01:44:42;;;;;;;;;0.00;0.00;33.70;99.90;;;;;;4849104;29;8890;-73
2022/07/26 01:47:12;;;;;;;;;1.20;0.20;33.70;99.90;;;;;;4848372;29;8869;-73
2022/07/26 01:49:42;;;;;;;;;0.00;0.00;33.70;99.90;;;;;;4850031;29;8849;-74
2022/07/26 01:52:14;;;;;;;;;0.00;0.00;33.70;99.90;;;;;;4849443;29;8882;-74
2022/07/26 01:54:48;;;;;;;;;0.80;0.80;33.60;99.90;;;;;;4848423;29;8912;-72
2022/07/26 01:57:20;;;;;;;;;0.40;0.00;33.60;99.90;;;;;;4862406;29;8903;-73
2022/07/26 01:59:51;;;;;;;;;0.20;0.20;33.50;99.90;;;;;;4844655;29;8883;-73
2022/07/26 02:02:22;;;;;;;;;0.40;0.40;33.40;99.90;;;;;;4832068;29;8877;-73
2022/07/26 02:04:59;;;;;;;;;0.00;0.00;33.40;99.90;;;;;;4849940;29;9560;-73
2022/07/26 02:07:33;;;;;;;;;0.00;0.00;33.30;99.90;;;;;;4834066;29;8869;-73
2022/07/26 02:10:07;;;;;;;;;1.00;1.00;33.30;99.90;;;;;;4847818;29;8876;-73
2022/07/26 02:12:42;;;;;;;;;0.40;0.40;33.20;99.90;;;;;;4849376;29;8932;-73
2022/07/26 02:15:15;;;;;;;;;1.00;1.00;33.30;99.90;;;;;;4848330;29;8940;-73
2022/07/26 02:17:45;;;;;;;;;0.60;0.60;33.20;99.90;;;;;;4852660;29;8873;-73
2022/07/26 02:20:15;;;;;;;;;0.40;0.00;33.10;99.90;;;;;;4851444;29;8846;-73
2022/07/26 02:22:46;;;;;;;;;0.40;0.00;33.10;99.90;;;;;;4852860;29;8885;-73
2022/07/26 02:25:16;;;;;;;;;1.60;1.20;33.10;99.90;;;;;;4851905;29;8912;-72
2022/07/26 02:27:46;;;;;;;;;3.00;1.20;33.00;99.90;;;;;;4852471;29;8862;-72
2022/07/26 02:30:17;;;;;;;;;3.80;2.00;33.00;99.90;;;;;;4853430;29;8879;-73
2022/07/26 02:32:49;;;;;;;;;0.40;0.40;33.00;99.90;;;;;;4851237;29;9638;-73
2022/07/26 02:35:20;;;;;;;;;1.80;0.60;32.80;99.90;;;;;;4850213;29;8849;-73
2022/07/26 02:37:52;;;;;;;;;1.00;1.00;32.80;99.90;;;;;;4853517;29;8834;-73
2022/07/26 02:40:23;;;;;;;;;0.80;0.80;32.70;99.90;;;;;;4853635;29;8866;-73
2022/07/26 02:42:52;;;;;;;;;2.00;0.80;32.60;99.90;;;;;;4854584;29;8915;-73
2022/07/26 02:45:24;;;;;;;;;2.00;0.60;32.50;99.90;;;;;;4853065;29;8885;-72
2022/07/26 02:47:56;;;;;;;;;1.20;1.00;32.50;99.90;;;;;;4856158;29;9589;-73
2022/07/26 02:50:30;;;;;;;;;0.40;0.40;32.50;99.90;;;;;;4863674;29;8841;-73
2022/07/26 02:53:28;;;;;;;;;0.00;0.00;32.50;99.90;;;;;;4866995;29;8849;-73
2022/07/26 02:55:58;;;;;;;;;0.80;0.80;32.40;99.90;;;;;;4853138;29;8900;-73
2022/07/26 02:58:31;;;;;;;;;1.00;1.00;32.30;99.90;;;;;;4832655;29;10010;-73
2022/07/26 03:01:03;;;;;;;;;1.00;0.00;32.30;99.90;;;;;;4832661;29;8873;-73
2022/07/26 03:03:35;;;;;;;;;0.40;0.40;32.20;99.90;;;;;;4848135;29;8873;-72
2022/07/26 03:06:05;;;;;;;;;1.00;1.00;32.10;99.90;;;;;;4850961;29;8841;-73
2022/07/26 03:08:36;;;;;;;;;1.80;1.00;32.10;99.90;;;;;;4850686;29;8958;-70
2022/07/26 03:11:06;;;;;;;;;0.00;0.00;32.10;99.90;;;;;;4848701;29;8890;-71
2022/07/26 03:13:40;;;;;;;;;0.60;0.60;32.00;99.90;;;;;;4835849;29;8862;-70
2022/07/26 03:16:17;;;;;;;;;1.00;1.00;32.00;99.90;;;;;;4849544;29;9616;-71
2022/07/26 03:18:51;;;;;;;;;0.20;0.00;32.00;99.90;;;;;;4848893;29;8884;-72
2022/07/26 03:21:23;;;;;;;;;0.00;0.00;31.80;99.90;;;;;;4834546;29;8893;-71
2022/07/26 03:23:55;;;;;;;;;1.00;1.00;31.80;99.90;;;;;;4830857;29;8901;-72
2022/07/26 03:26:28;;;;;;;;;1.00;1.00;31.80;99.90;;;;;;4850738;29;8877;-72
2022/07/26 03:29:00;;;;;;;;;0.40;0.40;31.70;99.90;;;;;;4862237;29;8854;-72
2022/07/26 03:31:30;;;;;;;;;0.60;0.00;31.70;99.90;;;;;;4843065;29;9584;-72
2022/07/26 03:34:01;;;;;;;;;0.40;0.40;31.60;99.90;;;;;;4850666;29;9579;-73
2022/07/26 03:36:33;;;;;;;;;1.00;1.00;31.60;99.90;;;;;;4863774;29;9043;-73
2022/07/26 03:39:08;;;;;;;;;1.00;1.00;31.40;99.90;;;;;;4848140;29;8877;-73
2022/07/26 03:41:37;;;;;;;;;0.00;0.00;31.40;99.90;;;;;;4866108;29;8842;-73
2022/07/26 03:44:09;;;;;;;;;0.00;0.00;31.40;99.90;;;;;;4849814;29;9915;-72
2022/07/26 03:46:39;;;;;;;;;1.40;0.60;31.30;99.90;;;;;;4862324;29;8865;-73
2022/07/26 03:49:10;;;;;;;;;0.00;0.00;31.40;99.90;;;;;;4847382;29;8888;-73
2022/07/26 03:51:45;;;;;;;;;1.00;1.00;31.30;99.90;;;;;;4848408;29;8917;-73
2022/07/26 03:54:17;;;;;;;;;1.00;1.00;31.30;99.90;;;;;;4847206;29;8948;-73
2022/07/26 03:56:50;;;;;;;;;1.80;0.60;31.20;99.90;;;;;;4849953;29;8886;-73
2022/07/26 03:59:24;;;;;;;;;2.00;2.00;31.10;99.90;;;;;;4849516;29;8841;-73
2022/07/26 04:01:58;;;;;;;;;1.80;1.80;30.90;99.90;;;;;;4851730;29;8856;-73
2022/07/26 04:04:30;;;;;;;;;1.00;1.00;30.90;99.90;;;;;;4835790;29;8873;-73
2022/07/26 04:07:01;;;;;;;;;1.00;1.00;30.90;99.90;;;;;;4850053;29;8912;-74
2022/07/26 04:09:33;;;;;;;;;0.80;0.80;30.90;99.90;;;;;;4836710;29;8904;-73
2022/07/26 04:12:04;;;;;;;;;2.20;1.00;30.70;99.90;;;;;;4853153;29;9627;-73
2022/07/26 04:14:33;;;;;;;;;2.20;2.00;30.70;99.90;;;;;;4835647;29;8916;-73
2022/07/26 04:17:03;;;;;;;;;1.00;1.00;30.50;99.90;;;;;;4849184;29;8912;-73
2022/07/26 04:19:33;;;;;;;;;1.00;1.00;30.50;99.90;;;;;;4849764;29;8959;-73
2022/07/26 04:22:07;;;;;;;;;2.00;2.00;30.50;99.90;;;;;;4847398;29;8837;-73
2022/07/26 04:24:36;;;;;;;;;1.20;1.20;30.40;99.90;;;;;;4850999;29;8891;-72
2022/07/26 04:27:07;;;;;;;;;3.00;1.00;30.40;99.90;;;;;;4834682;29;8869;-73
2022/07/26 04:29:37;;;;;;;;;1.00;1.00;30.40;99.90;;;;;;4846634;29;8853;-74
2022/07/26 04:32:06;;;;;;;;;0.00;0.00;30.40;99.90;;;;;;4828633;29;8905;-74
2022/07/26 04:34:37;;;;;;;;;2.00;2.00;30.30;99.90;;;;;;4848512;29;8927;-74
2022/07/26 04:37:06;;;;;;;;;1.20;1.20;30.30;99.90;;;;;;4847079;29;8907;-76
2022/07/26 04:39:53;;;;;;;;;3.20;2.00;30.30;99.90;;;;;;4809594;29;10337;-74
2022/07/26 04:42:25;;;;;;;;;1.00;1.00;30.20;99.90;;;;;;4827865;29;10040;-74
2022/07/26 04:44:55;;;;;;;;;1.60;1.00;30.20;99.90;;;;;;4846035;29;8900;-74
2022/07/26 04:47:24;;;;;;;;;1.80;1.80;30.10;99.90;;;;;;4843625;29;9959;-76
2022/07/26 04:49:54;;;;;;;;;3.00;1.00;30.00;99.90;;;;;;4832738;29;8857;-75
2022/07/26 04:52:24;;;;;;;;;2.80;1.40;29.90;99.90;;;;;;4850256;29;8869;-75
2022/07/26 04:54:53;;;;;;;;;1.20;1.20;29.90;99.90;;;;;;4828300;29;8878;-75
2022/07/26 04:57:25;;;;;;;;;2.20;2.20;29.80;99.90;;;;;;4845704;29;9058;-75
2022/07/26 04:59:55;;;;;;;;;2.00;1.00;29.70;99.90;;;;;;4850128;29;8861;-75
2022/07/26 05:02:48;;;;;;;;;4.00;1.60;29.70;99.90;;;;;;4847373;29;8888;-75
2022/07/26 05:05:21;;;;;;;;;3.20;2.20;29.80;99.90;;;;;;4849510;29;8889;-76
2022/07/26 05:07:55;;;;;;;;;3.00;0.80;29.60;99.90;;;;;;4850435;29;8833;-75
2022/07/26 05:10:36;;;;;;;;;1.20;1.20;29.60;99.90;;;;;;4846215;29;9655;-74
2022/07/26 05:13:09;;;;;;;;;3.00;1.20;29.50;99.90;;;;;;4832121;29;8861;-75
2022/07/26 05:15:43;;;;;;;;;2.00;2.00;29.60;99.90;;;;;;4843957;29;8903;-75
2022/07/26 05:18:13;;;;;;;;;2.00;2.00;29.50;99.90;;;;;;4829748;29;8905;-75
2022/07/26 05:20:43;;;;;;;;;2.00;2.00;29.40;99.90;;;;;;4862153;29;8885;-75
2022/07/26 05:23:15;;;;;;;;;2.00;2.00;29.40;99.90;;;;;;4845111;29;8912;-75
2022/07/26 05:25:45;;;;;;;;;2.00;2.00;29.30;99.90;;;;;;4845481;29;8920;-75
2022/07/26 05:28:16;;;;;;;;;1.40;1.40;29.30;99.90;;;;;;4845506;29;8881;-75
2022/07/26 06:06:46;;;;;;;;;2.00;1.00;28.60;99.90;;;;;;4809050;29;8870;-77
2022/07/26 06:09:23;;;;;;;;;2.40;1.00;28.50;99.90;;;;;;4808167;29;9029;-76
2022/07/26 06:11:56;;;;;;;;;2.00;2.00;28.60;99.90;;;;;;4799999;29;8871;-76
2022/07/26 06:14:26;;;;;;;;;1.00;1.00;28.40;99.90;;;;;;4816250;29;8846;-74
2022/07/26 06:16:57;;;;;;;;;2.00;2.00;28.40;99.90;;;;;;4824841;29;8878;-74
2022/07/26 06:19:30;;;;;;;;;1.80;1.80;28.30;99.90;;;;;;4808380;29;8927;-74
2022/07/26 06:22:03;;;;;;;;;1.20;1.20;28.00;99.90;;;;;;4809447;29;8866;-74
2022/07/26 06:24:35;;;;;;;;;1.20;1.20;28.20;99.90;;;;;;4796953;29;9028;-75
2022/07/26 06:27:08;;;;;;;;;1.20;1.20;28.10;99.90;;;;;;4794322;29;8928;-75
2022/07/26 06:29:39;;;;;;;;;0.00;0.00;27.90;99.90;;;;;;4796946;29;8879;-75
2022/07/26 06:32:12;;;;;;;;;2.00;2.00;28.00;99.90;;;;;;4809290;29;8877;-76
2022/07/26 06:34:45;;;;;;;;;2.40;2.40;27.90;99.90;;;;;;4813144;29;8887;-74
2022/07/26 06:37:15;;;;;;;;;1.60;1.60;27.90;99.90;;;;;;4809301;29;8870;-75
2022/07/26 06:39:49;;;;;;;;;1.20;1.20;27.80;99.90;;;;;;4827369;29;8913;-74
2022/07/26 06:42:20;;;;;;;;;1.80;1.80;27.70;99.90;;;;;;4799638;29;8875;-74
2022/07/26 06:44:50;;;;;;;;;2.00;2.00;27.70;99.90;;;;;;4810666;29;8897;-75
2022/07/26 06:47:22;;;;;;;;;1.00;1.00;27.70;99.90;;;;;;4807517;29;8874;-74
2022/07/26 06:49:58;;;;;;;;;2.60;2.60;27.70;99.90;;;;;;4808531;29;8913;-74
2022/07/26 06:52:31;;;;;;;;;2.00;2.00;27.60;99.90;;;;;;4810546;29;9590;-72
2022/07/26 06:55:07;;;;;;;;;2.20;2.20;27.70;99.90;;;;;;4797325;29;8952;-71
2022/07/26 06:57:40;;;;;;;;;2.00;2.00;27.60;99.90;;;;;;4815933;29;8879;-74
2022/07/26 07:00:19;;;;;;;;;2.00;2.00;27.60;99.90;;;;;;4811208;29;8870;-74
2022/07/26 07:02:52;;;;;;;;;4.00;3.00;27.60;99.90;;;;;;4814260;29;8900;-75
2022/07/26 07:05:23;;;;;;;;;1.80;1.80;27.60;99.90;;;;;;4828051;29;8937;-74
2022/07/26 07:07:59;;;;;;;;;1.00;1.00;27.60;99.90;;;;;;4850808;29;8885;-75
2022/07/26 07:10:30;;;;;;;;;2.00;2.00;27.50;99.90;;;;;;4828708;29;8877;-74
2022/07/26 07:13:02;;;;;;;;;2.00;2.00;27.40;99.90;;;;;;4852785;29;8987;-74
2022/07/26 07:15:31;;;;;;;;;2.60;2.60;27.30;99.90;;;;;;4846336;29;8869;-75
2022/07/26 07:18:01;;;;;;;;;2.00;2.00;27.30;99.90;;;;;;4830599;29;8908;-75
2022/07/26 07:20:33;;;;;;;;;2.00;2.00;27.40;99.90;;;;;;4842843;29;8857;-75
2022/07/26 07:23:08;;;;;;;;;2.00;2.00;27.30;99.90;;;;;;4828125;29;8853;-75
2022/07/26 07:25:39;;;;;;;;;2.00;2.00;27.20;99.90;;;;;;4844000;29;8854;-75
2022/07/26 07:28:12;;;;;;;;;2.00;2.00;27.20;99.90;;;;;;4844359;29;8928;-75
2022/07/26 07:30:44;;;;;;;;;2.00;2.00;27.20;99.90;;;;;;4847765;29;8916;-76
2022/07/26 07:33:17;;;;;;;;;2.60;2.60;27.20;99.90;;;;;;4844941;29;9019;-76
2022/07/26 07:35:52;;;;;;;;;0.00;0.00;27.00;99.90;;;;;;4826988;29;8913;-74
2022/07/26 07:38:23;;;;;;;;;2.00;2.00;27.10;99.90;;;;;;4829457;29;8865;-75
2022/07/26 07:40:52;;;;;;;;;2.40;2.40;27.10;99.90;;;;;;4841923;29;8876;-75
2022/07/26 07:43:23;;;;;;;;;2.00;2.00;27.10;99.90;;;;;;4844407;29;8869;-75
2022/07/26 07:45:54;;;;;;;;;0.80;0.80;27.10;99.90;;;;;;4842901;29;8896;-75
2022/07/26 07:48:26;;;;;;;;;4.60;2.20;26.90;99.90;;;;;;4847202;29;9583;-75
2022/07/26 07:50:55;;;;;;;;;2.20;2.20;27.00;99.90;;;;;;4844124;29;8861;-75
2022/07/26 07:53:27;;;;;;;;;2.00;2.00;26.90;99.90;;;;;;4847808;29;8921;-75
2022/07/26 07:55:59;;;;;;;;;2.00;2.00;26.90;99.90;;;;;;4849733;29;8896;-75
2022/07/26 07:58:31;;;;;;;;;3.00;3.00;26.90;99.90;;;;;;4847803;29;8869;-74
2022/07/26 08:01:04;;;;;;;;;2.00;2.00;26.80;99.90;;;;;;4830663;29;8901;-74
2022/07/26 08:03:39;;;;;;;;;1.40;1.40;26.70;99.90;;;;;;4849255;29;8917;-75
2022/07/26 08:06:11;;;;;;;;;2.00;2.00;26.90;99.90;;;;;;4846992;29;8907;-75
2022/07/26 08:08:41;;;;;;;;;3.20;3.20;26.80;99.90;;;;;;4849396;29;8871;-76
2022/07/26 08:11:11;;;;;;;;;1.20;1.20;26.60;99.90;;;;;;4846362;29;8888;-76
2022/07/26 08:13:43;;;;;;;;;2.00;2.00;26.60;99.90;;;;;;4842355;29;8899;-75
2022/07/26 08:16:16;;;;;;;;;2.00;2.00;26.60;99.90;;;;;;4845232;29;8849;-75
2022/07/26 08:18:47;;;;;;;;;2.60;2.60;26.60;99.90;;;;;;4843870;29;8884;-75
2022/07/26 08:21:26;;;;;;;;;3.40;3.40;26.60;99.90;;;;;;4843407;29;8838;-76
2022/07/26 08:23:58;;;;;;;;;3.40;3.40;26.60;99.90;;;;;;4844949;29;8878;-75
2022/07/26 08:26:29;;;;;;;;;2.60;2.60;26.50;99.90;;;;;;4859993;29;8889;-75
2022/07/26 08:29:01;;;;;;;;;2.00;2.00;26.40;99.90;;;;;;4844297;29;9588;-76
2022/07/26 08:31:31;;;;;;;;;2.00;2.00;26.50;99.90;;;;;;4844796;29;8857;-75
2022/07/26 08:34:03;;;;;;;;;2.00;2.00;26.50;99.90;;;;;;4846401;29;8855;-75
2022/07/26 08:36:33;;;;;;;;;2.00;2.00;26.60;99.90;;;;;;4846476;29;8900;-75
2022/07/26 08:39:08;;;;;;;;;2.20;2.20;26.50;99.90;;;;;;4844421;29;8869;-75
2022/07/26 08:41:41;;;;;;;;;2.60;2.60;26.50;99.90;;;;;;4844574;29;8862;-76
2022/07/26 08:44:12;;;;;;;;;2.20;2.20;26.30;99.90;;;;;;4828057;29;9063;-75
2022/07/26 08:46:43;;;;;;;;;2.20;2.20;26.30;99.90;;;;;;4842557;29;8885;-75
2022/07/26 08:49:14;;;;;;;;;2.00;2.00;26.30;99.90;;;;;;4843875;29;9958;-75
2022/07/26 08:51:49;;;;;;;;;2.50;2.50;26.20;99.90;;;;;;4843184;29;10219;-73
2022/07/26 08:54:20;;;;;;;;;2.00;2.00;26.30;99.90;;;;;;4841250;29;8885;-73
2022/07/26 08:56:52;;;;;;;;;3.25;3.25;26.30;99.90;;;;;;4848212;29;8869;-74
2022/07/26 08:59:25;;;;;;;;;1.25;1.25;26.20;99.90;;;;;;4840480;29;9019;-76
2022/07/26 09:02:12;;;;;;;;;3.00;3.00;26.20;99.90;;;;;;4844139;29;9746;-76
2022/07/26 09:04:45;;;;;;;;;1.00;1.00;26.30;99.90;;;;;;4844496;29;8877;-76
2022/07/26 09:07:21;;;;;;;;;3.25;3.25;26.20;99.90;;;;;;4845617;29;8892;-76
2022/07/26 09:09:59;;;;;;;;;1.00;1.00;26.20;99.90;;;;;;4861586;29;9633;-74
2022/07/26 09:12:32;;;;;;;;;3.00;3.00;26.20;99.90;;;;;;4854212;29;9630;-74
2022/07/26 09:15:03;;;;;;;;;2.25;2.25;26.10;99.90;;;;;;4843457;29;8995;-75
2022/07/26 09:17:44;;;;;;;;;5.00;5.00;26.10;99.90;;;;;;4842151;29;9021;-74
2022/07/26 09:20:23;;;;;;;;;3.00;3.00;26.20;99.90;;;;;;4842633;29;8881;-75
2022/07/26 09:23:15;;;;;;;;;2.60;2.60;26.10;99.90;;;;;;4843335;29;8888;-76
2022/07/26 09:25:47;;;;;;;;;2.00;2.00;26.10;99.90;;;;;;4840095;29;8865;-75
2022/07/26 09:28:29;;;;;;;;;3.00;3.00;25.90;99.90;;;;;;4826894;29;8890;-75
2022/07/26 09:31:03;;;;;;;;;2.20;2.20;25.90;99.90;;;;;;4842176;29;8886;-75
2022/07/26 09:33:51;;;;;;;;;2.00;2.00;26.00;99.90;;;;;;4842230;29;8893;-75
2022/07/26 09:36:21;;;;;;;;;2.00;2.00;26.00;99.90;;;;;;4859925;29;8873;-76
2022/07/26 09:38:57;;;;;;;;;3.00;3.00;26.00;99.90;;;;;;4842704;29;8873;-75
2022/07/26 09:41:35;;;;;;;;;4.00;2.00;26.00;99.90;;;;;;4858114;29;9034;-76
2022/07/26 09:44:19;;;;;;;;;2.50;2.50;26.00;99.90;;;;;;4850038;29;9302;-74
2022/07/26 09:46:55;;;;;;;;;1.00;1.00;25.90;99.90;;;;;;4839739;29;8885;-76
2022/07/26 09:49:26;;;;;;;;;2.40;2.40;25.90;99.90;;;;;;4847424;29;8971;-74
2022/07/26 09:52:23;;;;;;;;;3.50;3.50;25.90;99.90;;;;;;4816121;29;8897;-74
2022/07/26 09:54:53;;;;;;;;;2.60;2.60;25.80;99.90;;;;;;4842589;29;8884;-74
2022/07/26 09:57:24;;;;;;;;;4.00;4.00;25.80;99.90;;;;;;4844628;29;8900;-75
2022/07/26 09:59:57;;;;;;;;;3.00;3.00;25.80;99.90;;;;;;4842908;29;8860;-75
2022/07/26 10:02:30;;;;;;;;;2.25;2.25;25.70;99.90;;;;;;4843458;29;8865;-75
2022/07/26 10:05:01;;;;;;;;;3.50;2.75;25.80;99.90;;;;;;4841924;29;8909;-75
2022/07/26 10:07:32;;;;;;;;;2.75;2.75;25.70;99.90;;;;;;4841576;29;8859;-75
2022/07/26 10:10:13;;;;;;;;;4.00;4.00;25.70;99.90;;;;;;4845133;29;8888;-74
2022/07/26 10:12:47;;;;;;;;;2.00;2.00;25.70;99.90;;;;;;4850330;29;8806;-74
2022/07/26 10:15:37;;;;;;;;;4.00;3.00;25.60;99.90;;;;;;4827601;29;8913;-74
2022/07/26 10:18:10;;;;;;;;;2.00;2.00;25.70;99.90;;;;;;4847277;29;8865;-75
2022/07/26 10:20:51;;;;;;;;;3.50;2.25;25.70;99.90;;;;;;4840925;29;9009;-74
2022/07/26 10:23:45;;;;;;;;;0.25;0.25;25.60;99.90;;;;;;4828418;29;8849;-74
2022/07/26 10:26:36;;;;;;;;;3.00;3.00;25.60;99.90;;;;;;4845865;29;8857;-74
2022/07/26 10:29:22;;;;;;;;;3.00;3.00;25.50;99.90;;;;;;4842260;29;8862;-74
2022/07/26 10:32:03;;;;;;;;;3.25;3.25;25.60;99.90;;;;;;4841194;29;8885;-73
2022/07/26 10:34:38;;;;;;;;;4.00;4.00;25.60;99.90;;;;;;4826737;29;8885;-75
2022/07/26 10:37:19;;;;;;;;;3.00;3.00;25.60;99.90;;;;;;4844002;29;8873;-75
2022/07/26 10:39:53;;;;;;;;;2.75;2.75;25.50;99.90;;;;;;4842589;29;9065;-75
2022/07/26 10:42:43;;;;;;;;;3.00;3.00;25.50;99.90;;;;;;4843626;29;8856;-75
2022/07/26 10:45:20;;;;;;;;;2.25;2.00;25.50;99.90;;;;;;4844371;29;9440;-75
2022/07/26 10:48:11;;;;;;;;;3.25;3.25;25.50;99.90;;;;;;4846684;29;8846;-75
2022/07/26 10:50:45;;;;;;;;;2.75;2.75;25.40;99.90;;;;;;4844300;29;8853;-75
2022/07/26 10:53:23;;;;;;;;;2.50;2.50;25.50;99.90;;;;;;4843704;29;9110;-75
2022/07/26 10:55:57;;;;;;;;;2.75;2.75;25.50;99.90;;;;;;4847395;29;8860;-75
2022/07/26 10:58:27;;;;;;;;;2.75;2.75;25.40;99.90;;;;;;4842678;29;8893;-75
2022/07/26 11:01:01;;;;;;;;;3.50;3.50;25.50;99.90;;;;;;4845632;29;8920;-75
2022/07/26 11:03:43;;;;;;;;;5.25;5.25;25.40;99.90;;;;;;4842733;29;8854;-75
2022/07/26 11:06:17;;;;;;;;;4.00;4.00;25.40;99.90;;;;;;4833601;29;9686;-75
2022/07/26 11:08:48;;;;;;;;;3.00;3.00;25.40;99.90;;;;;;4846023;29;8869;-75
2022/07/26 11:11:33;;;;;;;;;3.00;3.00;25.40;99.90;;;;;;4830277;29;8875;-75
2022/07/26 11:14:10;;;;;;;;;4.50;4.50;25.30;99.90;;;;;;4844414;29;8872;-75
2022/07/26 11:16:45;;;;;;;;;5.00;5.00;25.30;99.90;;;;;;4854152;29;8917;-75
2022/07/26 11:19:20;;;;;;;;;1.50;1.50;25.30;99.90;;;;;;4860135;29;8849;-75
2022/07/26 11:22:00;;;;;;;;;3.00;3.00;25.30;99.90;;;;;;4841709;29;8892;-74
2022/07/26 11:24:39;;;;;;;;;5.00;5.00;25.30;99.90;;;;;;4847407;29;8980;-75
2022/07/26 11:27:10;;;;;;;;;3.25;3.25;25.30;99.90;;;;;;4844718;29;8866;-74
2022/07/26 11:29:40;;;;;;;;;4.25;3.50;25.20;99.90;;;;;;4848344;29;8859;-74
2022/07/26 11:32:20;;;;;;;;;4.25;4.25;25.30;99.90;;;;;;4825872;29;8896;-74
2022/07/26 11:35:01;;;;;;;;;4.75;4.75;25.20;99.90;;;;;;4843142;29;8858;-74
2022/07/26 11:37:32;;;;;;;;;3.00;3.00;25.20;99.90;;;;;;4846480;29;8924;-74
2022/07/26 11:40:03;;;;;;;;;4.50;4.50;25.30;99.90;;;;;;4846641;29;8853;-74
2022/07/26 11:42:32;;;;;;;;;4.00;4.00;25.10;99.90;;;;;;4848368;29;8913;-75
2022/07/26 11:45:02;;;;;;;;;3.75;3.75;25.20;99.90;;;;;;4850807;29;9581;-74
2022/07/26 11:47:35;;;;;;;;;4.25;4.25;25.30;99.90;;;;;;4848689;29;8838;-74
2022/07/26 11:50:08;;;;;;;;;4.00;4.00;25.20;99.90;;;;;;4845166;29;8889;-74
2022/07/26 11:52:51;;;;;;;;;5.00;5.00;25.20;99.90;;;;;;4854835;29;9573;-74
2022/07/26 11:55:31;;;;;;;;;4.25;4.25;25.20;99.90;;;;;;4846710;29;9628;-74
2022/07/26 11:58:05;;;;;;;;;3.25;3.25;25.10;99.90;;;;;;4845086;29;8909;-74
2022/07/26 12:00:36;;;;;;;;;4.00;4.00;25.10;99.90;;;;;;4866068;29;8865;-74
2022/07/26 12:03:09;;;;;;;;;3.00;3.00;25.20;99.90;;;;;;4830577;29;8884;-75
2022/07/26 12:05:41;;;;;;;;;5.00;5.00;25.10;99.90;;;;;;4842830;29;9041;-75
2022/07/26 12:08:11;;;;;;;;;4.25;4.25;25.10;99.90;;;;;;4850630;29;8901;-75
2022/07/26 12:10:43;;;;;;;;;4.50;4.50;25.10;99.90;;;;;;4845132;29;9020;-75
2022/07/26 12:13:15;;;;;;;;;3.75;3.75;25.10;99.90;;;;;;4846242;29;9674;-75
2022/07/26 12:15:51;;;;;;;;;4.00;4.00;25.10;99.90;;;;;;4845947;29;9019;-74
2022/07/26 12:18:27;;;;;;;;;4.00;4.00;25.20;99.90;;;;;;4847452;29;9571;-75
2022/07/26 12:21:04;;;;;;;;;3.25;3.25;25.20;99.90;;;;;;4847498;29;8884;-75
2022/07/26 12:23:51;;;;;;;;;5.25;5.00;25.30;99.90;;;;;;4850170;29;8858;-74
2022/07/26 12:26:27;;;;;;;;;6.25;4.50;25.30;99.90;;;;;;4849740;29;8860;-74
2022/07/26 12:29:23;;;;;;;;;6.25;6.25;25.30;99.90;;;;;;4848624;29;8840;-75
2022/07/26 12:32:16;;;;;;;;;4.75;4.75;25.30;99.90;;;;;;4844017;29;8904;-74
2022/07/26 12:35:00;;;;;;;;;4.00;4.00;25.20;99.90;;;;;;4851257;29;8841;-74
2022/07/26 12:37:35;;;;;;;;;5.00;5.00;25.30;99.90;;;;;;4846419;29;8850;-75
2022/07/26 12:40:09;;;;;;;;;5.50;5.50;25.40;99.90;;;;;;4849594;29;8893;-75
2022/07/26 12:42:43;;;;;;;;;5.00;5.00;25.40;99.90;;;;;;4822019;29;9515;-74
2022/07/26 12:45:13;;;;;;;;;3.75;3.75;25.40;99.90;;;;;;4845157;29;8888;-73
2022/07/26 12:47:48;;;;;;;;;5.00;5.00;25.50;99.90;;;;;;4847944;29;8865;-75
2022/07/26 12:50:20;;;;;;;;;5.00;5.00;25.50;99.90;;;;;;4843728;29;8869;-75
2022/07/26 12:52:52;;;;;;;;;3.00;3.00;25.50;99.90;;;;;;4850482;29;8854;-75
2022/07/26 12:55:24;;;;;;;;;4.75;4.75;25.50;99.90;;;;;;4846718;29;8853;-75
2022/07/26 12:57:55;;;;;;;;;7.50;6.00;25.50;99.90;;;;;;4849314;29;8846;-75
2022/07/26 13:00:27;;;;;;;;;3.25;3.25;25.60;99.90;;;;;;4847657;29;9580;-75
2022/07/26 13:03:00;;;;;;;;;5.50;5.50;25.60;99.90;;;;;;4845234;29;8881;-73
2022/07/26 13:05:33;;;;;;;;;5.00;5.00;25.70;99.90;;;;;;4844086;29;8923;-72
2022/07/26 13:08:03;;;;;;;;;4.50;4.50;25.70;99.90;;;;;;4848538;29;8911;-75
2022/07/26 13:10:34;;;;;;;;;4.00;3.50;25.80;99.90;;;;;;4858473;29;9043;-75
2022/07/26 13:13:05;;;;;;;;;5.25;5.25;25.90;99.90;;;;;;4851205;29;8836;-75
2022/07/26 13:15:34;;;;;;;;;5.00;5.00;26.00;99.90;;;;;;4844321;29;8850;-75
2022/07/26 13:18:09;;;;;;;;;5.00;5.00;26.00;99.90;;;;;;4846213;29;8882;-74
2022/07/26 13:20:42;;;;;;;;;5.00;5.00;26.00;99.90;;;;;;4846426;29;8865;-74
2022/07/26 13:23:11;;;;;;;;;2.50;2.50;26.10;99.90;;;;;;4844301;29;9016;-74
2022/07/26 13:25:51;;;;;;;;;5.00;5.00;26.20;99.90;;;;;;4846988;29;8885;-74
2022/07/26 13:28:23;;;;;;;;;4.75;4.75;26.30;99.90;;;;;;4826937;29;8889;-74
2022/07/26 13:30:53;;;;;;;;;4.50;4.50;26.30;99.90;;;;;;4842136;29;9015;-74
2022/07/26 13:33:23;;;;;;;;;4.00;4.00;26.30;99.90;;;;;;4841252;29;10934;-75
2022/07/26 13:35:58;;;;;;;;;5.00;5.00;26.40;99.90;;;;;;4844772;29;9003;-74
2022/07/26 13:38:32;;;;;;;;;4.50;3.00;26.50;99.90;;;;;;4859340;29;8924;-74
2022/07/26 13:41:03;;;;;;;;;4.25;4.25;26.60;99.90;;;;;;4844170;29;8860;-75
2022/07/26 13:43:39;;;;;;;;;4.25;4.25;26.70;99.90;;;;;;4843357;29;8896;-75
2022/07/26 13:46:10;;;;;;;;;4.75;4.75;26.80;99.90;;;;;;4847378;29;8881;-74
2022/07/26 13:48:40;;;;;;;;;3.75;3.75;26.80;99.90;;;;;;4846241;29;8885;-74
2022/07/26 13:54:22;;;;;;;;;5.25;4.50;26.90;99.90;;;;;;4841795;29;8856;-74
2022/07/26 13:56:53;;;;;;;;;4.50;4.50;27.00;99.90;;;;;;4846535;29;8868;-74
2022/07/26 13:59:24;;;;;;;;;4.50;4.00;27.10;99.90;;;;;;4846381;29;8896;-74
2022/07/26 14:01:55;;;;;;;;;3.00;3.00;27.20;99.90;;;;;;4841587;29;9639;-73
2022/07/26 14:04:26;;;;;;;;;2.25;2.25;27.20;99.90;;;;;;4842559;29;8855;-74
2022/07/26 14:07:00;;;;;;;;;3.00;3.00;27.40;99.90;;;;;;4846555;29;8989;-75
2022/07/26 14:09:30;;;;;;;;;3.00;3.00;27.30;99.90;;;;;;4844922;29;8905;-72